createdAt,value
2017-10-31T00:01:57.592Z,3.00
2017-10-31T00:04:25.997Z,2.90
2017-10-31T00:06:54.410Z,2.90
2017-10-31T00:09:22.854Z,2.80
2017-10-31T00:11:51.256Z,2.80
2017-10-31T00:14:19.701Z,2.80
2017-10-31T00:16:48.149Z,2.80
2017-10-31T00:19:16.201Z,2.70
2017-10-31T00:21:44.601Z,2.70
2017-10-31T00:24:12.687Z,2.60
2017-10-31T00:26:41.101Z,2.60
2017-10-31T00:29:09.505Z,2.60
2017-10-31T00:31:38.683Z,2.40
2017-10-31T00:34:07.087Z,2.40
2017-10-31T00:36:36.252Z,2.40
2017-10-31T00:39:03.991Z,2.30
2017-10-31T00:41:32.395Z,2.40
2017-10-31T00:44:00.811Z,2.40
2017-10-31T00:46:29.297Z,2.40
2017-10-31T00:48:57.702Z,2.30
2017-10-31T00:51:26.110Z,2.30
2017-10-31T00:53:54.531Z,2.30
2017-10-31T00:56:22.938Z,2.30
2017-10-31T00:58:51.334Z,2.20
2017-10-31T01:01:19.753Z,2.20
2017-10-31T01:03:48.930Z,2.20
2017-10-31T01:06:17.338Z,2.20
2017-10-31T01:08:45.780Z,2.20
2017-10-31T01:11:14.214Z,2.20
2017-10-31T01:13:42.622Z,2.10
2017-10-31T01:16:11.096Z,2.10
2017-10-31T01:18:39.511Z,2.10
2017-10-31T01:21:07.917Z,2.00
2017-10-31T01:23:36.151Z,2.00
2017-10-31T01:26:04.559Z,2.00
2017-10-31T01:28:33.725Z,2.00
2017-10-31T01:31:02.255Z,2.00
2017-10-31T01:33:30.663Z,2.00
2017-10-31T01:35:59.058Z,2.00
2017-10-31T01:38:27.479Z,2.10
2017-10-31T01:40:55.883Z,2.00
2017-10-31T01:43:24.291Z,2.00
2017-10-31T01:45:52.715Z,2.00
2017-10-31T01:48:21.122Z,1.90
2017-10-31T01:50:49.527Z,1.90
2017-10-31T01:53:18.195Z,1.90
2017-10-31T01:55:46.606Z,1.90
2017-10-31T01:58:14.659Z,1.90
2017-10-31T02:00:42.390Z,1.80
2017-10-31T02:03:10.450Z,1.80
2017-10-31T02:05:38.859Z,1.70
2017-10-31T02:08:07.106Z,1.80
2017-10-31T02:10:35.517Z,1.70
2017-10-31T02:13:03.911Z,1.70
2017-10-31T02:15:32.336Z,1.70
2017-10-31T02:18:00.742Z,1.70
2017-10-31T02:20:29.071Z,1.70
2017-10-31T02:22:57.919Z,1.70
2017-10-31T02:25:26.318Z,1.70
2017-10-31T02:27:54.378Z,1.70
2017-10-31T02:30:22.117Z,1.70
2017-10-31T02:32:49.835Z,1.70
2017-10-31T02:35:18.309Z,1.80
2017-10-31T02:37:46.816Z,1.80
2017-10-31T02:40:14.527Z,1.80
2017-10-31T02:42:43.345Z,1.60
2017-10-31T02:45:11.840Z,1.60
2017-10-31T02:47:39.902Z,1.50
2017-10-31T02:50:07.866Z,1.60
2017-10-31T02:52:35.592Z,1.50
2017-10-31T02:55:03.646Z,1.60
2017-10-31T02:57:31.461Z,1.60
2017-10-31T02:59:59.218Z,1.60
2017-10-31T03:02:28.051Z,1.50
2017-10-31T03:04:55.762Z,1.50
2017-10-31T03:07:24.263Z,1.60
2017-10-31T03:09:52.004Z,1.60
2017-10-31T03:12:19.953Z,1.70
2017-10-31T03:14:47.669Z,1.80
2017-10-31T03:17:15.376Z,1.80
2017-10-31T03:19:43.087Z,1.60
2017-10-31T03:22:10.817Z,1.60
2017-10-31T03:24:39.298Z,1.40
2017-10-31T03:27:07.777Z,1.50
2017-10-31T03:29:36.281Z,1.40
2017-10-31T03:32:04.344Z,1.40
2017-10-31T03:34:32.815Z,1.50
2017-10-31T03:37:02.294Z,1.50
2017-10-31T03:39:30.026Z,1.50
2017-10-31T03:41:57.737Z,1.50
2017-10-31T03:44:26.582Z,1.40
2017-10-31T03:46:54.294Z,1.40
2017-10-31T03:49:22.799Z,1.30
2017-10-31T03:51:50.884Z,1.30
2017-10-31T03:54:18.590Z,1.20
2017-10-31T03:56:46.309Z,1.20
2017-10-31T03:59:14.387Z,1.20
2017-10-31T04:01:42.527Z,1.10
2017-10-31T04:04:10.247Z,1.10
2017-10-31T04:06:38.362Z,1.10
2017-10-31T04:09:06.087Z,1.10
2017-10-31T04:11:33.808Z,1.10
2017-10-31T04:14:01.550Z,1.10
2017-10-31T04:16:29.284Z,1.10
2017-10-31T04:18:58.462Z,1.00
2017-10-31T04:21:26.883Z,1.00
2017-10-31T04:23:55.286Z,1.00
2017-10-31T04:26:23.693Z,1.00
2017-10-31T04:28:52.117Z,1.00
2017-10-31T04:31:22.257Z,1.00
2017-10-31T04:33:50.317Z,1.00
2017-10-31T04:36:19.057Z,0.90
2017-10-31T04:38:47.474Z,0.90
2017-10-31T04:41:15.875Z,0.90
2017-10-31T04:43:44.365Z,0.90
2017-10-31T04:46:12.772Z,0.90
2017-10-31T04:48:41.947Z,0.90
2017-10-31T04:51:10.371Z,0.90
2017-10-31T04:53:39.540Z,1.00
2017-10-31T04:56:07.258Z,0.90
2017-10-31T04:58:35.332Z,0.90
2017-10-31T05:01:03.390Z,0.90
2017-10-31T05:03:31.797Z,0.80
2017-10-31T05:06:00.218Z,0.80
2017-10-31T05:08:29.394Z,0.80
2017-10-31T05:10:57.798Z,0.80
2017-10-31T05:13:26.998Z,0.70
2017-10-31T05:15:56.226Z,0.70
2017-10-31T05:18:24.638Z,0.60
2017-10-31T05:20:53.053Z,0.60
2017-10-31T05:23:22.225Z,0.60
2017-10-31T05:25:51.385Z,0.60
2017-10-31T05:28:19.819Z,0.60
2017-10-31T05:30:48.997Z,0.50
2017-10-31T05:33:17.405Z,0.50
2017-10-31T05:35:46.594Z,0.50
2017-10-31T05:38:15.777Z,0.50
2017-10-31T05:40:44.185Z,0.50
2017-10-31T05:43:12.609Z,0.60
2017-10-31T05:45:41.013Z,0.50
2017-10-31T05:48:09.413Z,0.50
2017-10-31T05:50:38.598Z,0.50
2017-10-31T05:53:07.770Z,0.50
2017-10-31T05:55:36.183Z,0.50
2017-10-31T05:58:05.037Z,0.50
2017-10-31T06:00:34.241Z,0.40
2017-10-31T06:03:02.638Z,0.40
2017-10-31T06:05:31.831Z,0.40
2017-10-31T06:08:00.997Z,0.40
2017-10-31T06:10:29.407Z,0.40
2017-10-31T06:12:58.595Z,0.40
2017-10-31T06:15:26.994Z,0.40
2017-10-31T06:17:56.159Z,0.40
2017-10-31T06:20:24.624Z,0.40
2017-10-31T06:22:58.645Z,0.40
2017-10-31T06:25:32.557Z,0.40
2017-10-31T06:28:07.273Z,0.50
2017-10-31T06:30:54.349Z,0.40
2017-10-31T06:33:22.760Z,0.50
2017-10-31T06:35:51.161Z,0.50
2017-10-31T06:38:19.236Z,0.60
2017-10-31T06:40:48.423Z,0.70
2017-10-31T06:43:16.837Z,0.70
2017-10-31T06:45:45.417Z,0.80
2017-10-31T06:48:13.820Z,0.80
2017-10-31T06:50:41.880Z,0.90
2017-10-31T06:53:10.301Z,1.00
2017-10-31T06:55:38.365Z,1.10
2017-10-31T06:58:06.766Z,1.20
2017-10-31T07:00:35.195Z,1.30
2017-10-31T07:03:03.612Z,1.40
2017-10-31T07:05:32.026Z,1.50
2017-10-31T07:08:01.218Z,1.80
2017-10-31T07:10:30.400Z,2.00
2017-10-31T07:12:59.582Z,2.10
2017-10-31T07:15:28.002Z,2.10
2017-10-31T07:17:56.410Z,2.20
2017-10-31T07:20:24.817Z,2.30
2017-10-31T07:22:53.242Z,2.50
2017-10-31T07:25:21.645Z,2.70
2017-10-31T07:27:50.057Z,2.90
2017-10-31T07:30:18.474Z,3.30
2017-10-31T07:32:46.890Z,4.50
2017-10-31T07:35:15.289Z,5.40
2017-10-31T07:37:43.707Z,6.00
2017-10-31T07:40:12.101Z,6.50
2017-10-31T07:42:40.505Z,6.60
2017-10-31T07:45:08.923Z,7.10
2017-10-31T07:47:38.093Z,8.10
2017-10-31T07:50:06.310Z,8.10
2017-10-31T07:52:34.730Z,8.50
2017-10-31T07:55:03.141Z,8.60
2017-10-31T07:57:31.546Z,8.80
2017-10-31T07:59:59.968Z,9.30
2017-10-31T08:02:28.375Z,9.50
2017-10-31T08:04:56.778Z,9.60
2017-10-31T08:07:25.216Z,9.50
2017-10-31T08:09:53.640Z,9.40
2017-10-31T08:12:22.046Z,9.50
2017-10-31T08:14:50.459Z,9.50
2017-10-31T08:17:18.870Z,9.60
2017-10-31T08:19:47.293Z,10.00
2017-10-31T08:22:15.715Z,10.10
2017-10-31T08:24:44.905Z,10.40
2017-10-31T08:27:14.077Z,9.50
2017-10-31T08:29:42.507Z,9.50
2017-10-31T08:32:10.950Z,9.10
2017-10-31T08:34:39.356Z,8.90
2017-10-31T08:37:07.774Z,8.80
2017-10-31T08:39:36.275Z,8.80
2017-10-31T08:42:04.334Z,8.60
2017-10-31T08:44:32.063Z,8.70
2017-10-31T08:47:00.126Z,8.80
2017-10-31T08:49:28.533Z,9.10
2017-10-31T08:51:56.994Z,9.70
2017-10-31T08:54:25.404Z,10.40
2017-10-31T08:56:53.822Z,10.50
2017-10-31T08:59:23.037Z,11.90
2017-10-31T09:01:51.446Z,11.90
2017-10-31T09:04:19.858Z,12.40
2017-10-31T09:06:48.285Z,12.60
2017-10-31T09:09:16.703Z,12.90
2017-10-31T09:11:45.878Z,12.00
2017-10-31T09:14:14.301Z,12.00
2017-10-31T09:16:43.478Z,11.40
2017-10-31T09:19:11.894Z,11.40
2017-10-31T09:21:40.323Z,11.50
2017-10-31T09:24:08.728Z,10.80
2017-10-31T09:26:37.143Z,10.30
2017-10-31T09:29:05.935Z,10.30
2017-10-31T09:31:34.346Z,9.80
2017-10-31T09:34:02.763Z,9.30
2017-10-31T09:36:31.951Z,9.40
2017-10-31T09:39:01.124Z,9.00
2017-10-31T09:41:29.535Z,9.00
2017-10-31T09:43:58.720Z,8.90
2017-10-31T09:46:27.118Z,8.80
2017-10-31T09:48:56.282Z,8.90
2017-10-31T09:51:24.707Z,8.90
2017-10-31T09:53:53.123Z,9.10
2017-10-31T09:56:21.547Z,8.90
2017-10-31T09:58:50.735Z,9.00
2017-10-31T10:01:19.902Z,9.00
2017-10-31T10:03:48.316Z,8.90
2017-10-31T10:06:16.737Z,9.60
2017-10-31T10:08:45.160Z,9.50
2017-10-31T10:11:14.349Z,10.00
2017-10-31T10:13:42.765Z,9.90
2017-10-31T10:16:11.178Z,10.40
2017-10-31T10:18:39.592Z,10.30
2017-10-31T10:21:08.790Z,9.80
2017-10-31T10:23:37.966Z,10.00
2017-10-31T10:26:06.363Z,9.90
2017-10-31T10:28:35.557Z,10.60
2017-10-31T10:31:03.963Z,10.50
2017-10-31T10:33:32.371Z,10.60
2017-10-31T10:36:00.795Z,10.40
2017-10-31T10:38:30.601Z,10.20
2017-10-31T10:40:59.009Z,10.10
2017-10-31T10:43:27.485Z,10.00
2017-10-31T10:45:55.954Z,10.00
2017-10-31T10:48:23.711Z,10.00
2017-10-31T10:50:52.898Z,10.00
2017-10-31T10:53:21.315Z,10.00
2017-10-31T10:55:49.718Z,9.90
2017-10-31T10:58:17.791Z,9.70
2017-10-31T11:00:45.510Z,9.70
2017-10-31T11:03:17.383Z,9.50
2017-10-31T11:05:45.564Z,9.50
2017-10-31T11:08:13.630Z,9.40
2017-10-31T11:10:42.034Z,9.30
2017-10-31T11:13:10.450Z,9.50
2017-10-31T11:15:39.618Z,9.50
2017-10-31T11:18:08.029Z,9.50
2017-10-31T11:20:36.872Z,9.80
2017-10-31T11:23:05.276Z,9.80
2017-10-31T11:25:35.186Z,10.00
2017-10-31T11:28:03.615Z,10.00
2017-10-31T11:30:32.027Z,9.80
2017-10-31T11:33:00.435Z,9.90
2017-10-31T11:35:29.015Z,9.80
2017-10-31T11:37:57.456Z,9.60
2017-10-31T11:40:25.865Z,9.80
2017-10-31T11:42:54.292Z,10.00
2017-10-31T11:45:22.690Z,9.90
2017-10-31T11:47:51.097Z,9.80
2017-10-31T11:50:19.518Z,9.70
2017-10-31T11:52:47.933Z,9.90
2017-10-31T11:55:17.743Z,9.90
2017-10-31T11:57:46.158Z,9.90
2017-10-31T12:00:14.566Z,9.80
2017-10-31T12:02:42.963Z,9.70
2017-10-31T12:05:11.642Z,9.80
2017-10-31T12:07:40.962Z,9.90
2017-10-31T12:10:09.371Z,10.10
2017-10-31T12:12:38.572Z,10.30
2017-10-31T12:15:06.980Z,10.10
2017-10-31T12:17:38.219Z,9.80
2017-10-31T12:20:07.406Z,9.60
2017-10-31T12:22:36.570Z,9.50
2017-10-31T12:25:04.991Z,9.50
2017-10-31T12:27:34.154Z,9.20
2017-10-31T12:30:02.567Z,9.20
2017-10-31T12:32:31.759Z,9.10
2017-10-31T12:35:00.923Z,9.00
2017-10-31T12:37:29.326Z,9.00
2017-10-31T12:39:58.172Z,9.10
2017-10-31T12:42:26.982Z,9.10
2017-10-31T12:44:55.576Z,9.10
2017-10-31T12:47:23.651Z,9.00
2017-10-31T12:49:52.838Z,9.00
2017-10-31T12:52:21.252Z,9.00
2017-10-31T12:54:48.984Z,9.00
2017-10-31T12:57:17.813Z,8.90
2017-10-31T12:59:46.215Z,8.90
2017-10-31T13:02:15.128Z,8.90
2017-10-31T13:04:43.558Z,8.80
2017-10-31T13:07:11.091Z,8.70
2017-10-31T13:09:40.276Z,8.60
2017-10-31T13:12:09.446Z,8.50
2017-10-31T13:14:37.505Z,8.50
2017-10-31T13:17:05.946Z,8.60
2017-10-31T13:19:34.354Z,8.60
2017-10-31T13:22:02.755Z,8.60
2017-10-31T13:24:31.946Z,8.40
2017-10-31T13:27:00.398Z,8.30
2017-10-31T13:29:29.496Z,8.20
2017-10-31T13:31:58.446Z,8.20
2017-10-31T13:34:27.979Z,8.00
2017-10-31T13:36:56.879Z,8.00
2017-10-31T13:39:25.871Z,8.00
2017-10-31T13:41:54.865Z,8.00
2017-10-31T13:44:23.640Z,7.90
2017-10-31T13:46:52.439Z,8.00
2017-10-31T13:49:21.550Z,8.00
2017-10-31T13:51:50.521Z,8.00
2017-10-31T13:54:19.015Z,8.00
2017-10-31T13:56:47.424Z,8.10
2017-10-31T13:59:15.850Z,8.10
2017-10-31T14:01:44.540Z,8.10
2017-10-31T14:04:12.994Z,8.10
2017-10-31T14:06:41.926Z,8.10
2017-10-31T14:09:10.429Z,8.10
2017-10-31T14:11:39.387Z,8.10
2017-10-31T14:14:07.798Z,8.10
2017-10-31T14:16:38.885Z,8.10
2017-10-31T14:19:07.286Z,8.10
2017-10-31T14:21:35.694Z,8.10
2017-10-31T14:24:04.360Z,8.00
2017-10-31T14:26:32.765Z,8.00
2017-10-31T14:29:01.177Z,8.00
2017-10-31T14:31:30.393Z,8.00
2017-10-31T14:33:58.807Z,7.90
2017-10-31T14:36:27.214Z,8.00
2017-10-31T14:38:56.069Z,8.20
2017-10-31T14:41:24.470Z,8.20
2017-10-31T14:43:52.867Z,8.40
2017-10-31T14:46:22.050Z,8.60
2017-10-31T14:48:50.474Z,8.50
2017-10-31T14:51:18.869Z,8.60
2017-10-31T14:53:47.281Z,8.60
2017-10-31T14:56:16.447Z,8.50
2017-10-31T14:58:44.841Z,8.50
2017-10-31T15:01:13.267Z,8.40
2017-10-31T15:03:41.673Z,8.30
2017-10-31T15:06:10.080Z,8.30
2017-10-31T15:08:38.775Z,8.30
2017-10-31T15:11:07.180Z,8.20
2017-10-31T15:13:36.350Z,8.10
2017-10-31T15:16:04.852Z,8.10
2017-10-31T15:18:34.027Z,8.10
2017-10-31T15:21:02.422Z,8.00
2017-10-31T15:23:31.722Z,7.90
2017-10-31T15:26:00.890Z,7.90
2017-10-31T15:28:28.950Z,7.80
2017-10-31T15:30:57.585Z,7.70
2017-10-31T15:33:25.981Z,7.60
2017-10-31T15:35:54.398Z,7.60
2017-10-31T15:38:23.044Z,7.40
2017-10-31T15:40:51.458Z,7.30
2017-10-31T15:43:19.881Z,7.10
2017-10-31T15:45:48.585Z,7.10
2017-10-31T15:48:16.991Z,7.00
2017-10-31T15:50:45.386Z,6.90
2017-10-31T15:53:13.816Z,6.80
2017-10-31T15:55:42.209Z,6.70
2017-10-31T15:58:10.625Z,6.60
2017-10-31T16:00:39.053Z,6.50
2017-10-31T16:03:07.447Z,6.40
2017-10-31T16:05:35.861Z,6.20
2017-10-31T16:08:04.304Z,6.20
2017-10-31T16:10:32.707Z,6.10
2017-10-31T16:13:01.129Z,6.00
2017-10-31T16:15:29.562Z,5.90
2017-10-31T16:17:57.961Z,5.90
2017-10-31T16:20:26.378Z,5.90
2017-10-31T16:22:54.797Z,5.80
2017-10-31T16:25:23.218Z,5.80
2017-10-31T16:27:51.641Z,5.70
2017-10-31T16:30:20.069Z,5.70
2017-10-31T16:32:49.392Z,5.60
2017-10-31T16:35:17.808Z,5.60
2017-10-31T16:37:46.241Z,5.60
2017-10-31T16:40:14.642Z,5.60
2017-10-31T16:42:42.695Z,5.50
2017-10-31T16:45:11.125Z,5.40
2017-10-31T16:47:39.534Z,5.40
2017-10-31T16:50:08.721Z,5.20
2017-10-31T16:52:37.919Z,5.10
2017-10-31T16:55:07.093Z,5.10
2017-10-31T16:57:35.303Z,5.10
2017-10-31T17:00:03.393Z,5.00
2017-10-31T17:02:31.818Z,5.00
2017-10-31T17:05:00.225Z,4.90
2017-10-31T17:07:28.651Z,4.80
2017-10-31T17:09:57.064Z,4.80
2017-10-31T17:12:25.468Z,4.80
2017-10-31T17:14:53.902Z,4.80
2017-10-31T17:17:22.306Z,4.80
2017-10-31T17:19:51.482Z,4.70
2017-10-31T17:22:20.026Z,4.70
2017-10-31T17:24:48.527Z,4.60
2017-10-31T17:27:16.929Z,4.50
2017-10-31T17:29:45.361Z,4.50
2017-10-31T17:32:13.765Z,4.50
2017-10-31T17:34:42.172Z,4.50
2017-10-31T17:37:10.595Z,4.40
2017-10-31T17:39:38.999Z,4.40
2017-10-31T17:42:07.413Z,4.30
2017-10-31T17:44:36.601Z,4.20
2017-10-31T17:47:05.007Z,4.30
2017-10-31T17:49:33.415Z,4.30
2017-10-31T17:52:02.834Z,4.30
2017-10-31T17:54:31.251Z,4.20
2017-10-31T17:57:00.422Z,4.10
2017-10-31T17:59:28.840Z,4.10
2017-10-31T18:01:57.066Z,4.10
2017-10-31T18:04:25.475Z,4.10
2017-10-31T18:06:54.670Z,4.00
2017-10-31T18:09:23.843Z,4.00
2017-10-31T18:11:52.256Z,4.00
2017-10-31T18:14:21.450Z,4.00
2017-10-31T18:16:50.625Z,4.00
2017-10-31T18:19:19.035Z,4.00
2017-10-31T18:21:48.234Z,4.10
2017-10-31T18:24:16.637Z,4.10
2017-10-31T18:26:45.046Z,4.10
2017-10-31T18:29:13.468Z,4.10
2017-10-31T18:31:41.895Z,4.00
2017-10-31T18:34:11.323Z,3.90
2017-10-31T18:36:39.748Z,3.90
2017-10-31T18:39:08.156Z,3.80
2017-10-31T18:41:36.631Z,3.70
2017-10-31T18:44:05.054Z,3.80
2017-10-31T18:46:34.240Z,3.70
2017-10-31T18:49:03.434Z,3.60
2017-10-31T18:51:33.104Z,3.60
2017-10-31T18:54:01.517Z,3.60
2017-10-31T18:56:29.940Z,3.60
2017-10-31T18:58:58.371Z,3.50
2017-10-31T19:01:26.774Z,3.50
2017-10-31T19:03:55.956Z,3.40
2017-10-31T19:06:25.152Z,3.30
2017-10-31T19:08:54.382Z,3.30
2017-10-31T19:11:22.805Z,3.30
2017-10-31T19:13:51.221Z,3.40
2017-10-31T19:16:20.395Z,3.30
2017-10-31T19:18:48.811Z,3.30
2017-10-31T19:21:17.266Z,3.30
2017-10-31T19:23:46.441Z,3.30
2017-10-31T19:26:14.867Z,3.30
2017-10-31T19:28:44.134Z,3.30
2017-10-31T19:31:12.576Z,3.30
2017-10-31T19:33:40.987Z,3.30
2017-10-31T19:36:09.729Z,3.30
2017-10-31T19:38:38.139Z,3.30
2017-10-31T19:41:06.556Z,3.30
2017-10-31T19:43:35.739Z,3.30
2017-10-31T19:46:04.906Z,3.30
2017-10-31T19:48:34.200Z,3.30
2017-10-31T19:51:02.618Z,3.30
2017-10-31T19:53:31.443Z,3.30
2017-10-31T19:55:59.850Z,3.20
2017-10-31T19:58:28.278Z,3.30
2017-10-31T20:00:56.688Z,3.30
2017-10-31T20:03:25.105Z,3.30
2017-10-31T20:05:53.533Z,3.40
2017-10-31T20:08:21.946Z,3.40
2017-10-31T20:10:51.870Z,3.40
2017-10-31T20:13:20.300Z,3.40
2017-10-31T20:15:48.713Z,3.40
2017-10-31T20:18:17.126Z,3.40
2017-10-31T20:20:46.318Z,3.30
2017-10-31T20:23:15.499Z,3.30
2017-10-31T20:25:43.909Z,3.30
2017-10-31T20:28:12.357Z,3.30
2017-10-31T20:30:40.761Z,3.20
2017-10-31T20:33:09.950Z,3.10
2017-10-31T20:35:39.131Z,3.10
2017-10-31T20:38:07.547Z,3.00
2017-10-31T20:40:35.952Z,3.00
2017-10-31T20:43:05.334Z,3.00
2017-10-31T20:45:33.741Z,3.00
2017-10-31T20:48:02.151Z,3.00
2017-10-31T20:50:31.343Z,3.10
2017-10-31T20:52:59.763Z,3.10
2017-10-31T20:55:28.451Z,3.10
2017-10-31T20:57:56.876Z,3.10
2017-10-31T21:00:25.286Z,3.00
2017-10-31T21:02:54.458Z,3.00
2017-10-31T21:05:24.782Z,3.00
2017-10-31T21:07:53.190Z,2.90
2017-10-31T21:10:21.602Z,3.00
2017-10-31T21:12:50.031Z,3.10
2017-10-31T21:15:19.215Z,3.10
2017-10-31T21:17:47.634Z,3.10
2017-10-31T21:20:16.246Z,3.10
2017-10-31T21:22:44.660Z,3.00
2017-10-31T21:25:13.842Z,3.00
2017-10-31T21:27:41.935Z,3.00
2017-10-31T21:30:11.164Z,3.00
2017-10-31T21:32:39.570Z,3.00
2017-10-31T21:35:08.006Z,3.00
2017-10-31T21:37:36.418Z,2.90
2017-10-31T21:40:04.835Z,2.90
2017-10-31T21:42:33.259Z,2.90
2017-10-31T21:45:01.682Z,2.80
2017-10-31T21:47:30.088Z,2.70
2017-10-31T21:49:59.271Z,2.50
2017-10-31T21:52:28.451Z,2.50
2017-10-31T21:54:57.626Z,2.50
2017-10-31T21:57:26.059Z,2.50
2017-10-31T21:59:55.231Z,2.50
2017-10-31T22:02:24.475Z,2.40
2017-10-31T22:04:52.897Z,2.40
2017-10-31T22:07:22.079Z,2.30
2017-10-31T22:09:50.483Z,2.30
2017-10-31T22:12:18.902Z,2.30
2017-10-31T22:14:47.311Z,2.30
2017-10-31T22:17:15.719Z,2.30
2017-10-31T22:19:44.146Z,2.20
2017-10-31T22:22:12.557Z,2.20
2017-10-31T22:24:40.958Z,2.10
2017-10-31T22:27:09.386Z,2.10
2017-10-31T22:29:37.803Z,2.10
2017-10-31T22:32:06.206Z,2.00
2017-10-31T22:34:35.399Z,2.00
2017-10-31T22:37:04.572Z,2.00
2017-10-31T22:39:33.873Z,2.00
2017-10-31T22:42:02.298Z,2.00
2017-10-31T22:44:30.710Z,2.00
2017-10-31T22:46:59.119Z,2.00
2017-10-31T22:49:27.546Z,1.90
2017-10-31T22:51:55.966Z,1.90
2017-10-31T22:54:24.403Z,1.90
2017-10-31T22:56:52.879Z,1.90
2017-10-31T22:59:21.697Z,2.10
2017-10-31T23:01:50.099Z,2.10
2017-10-31T23:04:18.591Z,2.20
2017-10-31T23:06:47.765Z,2.50
2017-10-31T23:09:16.167Z,2.40
2017-10-31T23:11:45.354Z,2.70
2017-10-31T23:14:13.758Z,2.70
2017-10-31T23:16:42.158Z,2.80
2017-10-31T23:19:10.589Z,2.80
2017-10-31T23:21:40.299Z,3.00
2017-10-31T23:24:08.719Z,3.00
2017-10-31T23:26:37.148Z,3.20
2017-10-31T23:29:05.559Z,3.30
2017-10-31T23:31:34.003Z,3.40
2017-10-31T23:34:02.422Z,3.50
2017-10-31T23:36:30.834Z,3.50
2017-10-31T23:38:59.234Z,3.50
2017-10-31T23:41:27.976Z,3.40
2017-10-31T23:43:56.390Z,3.40
2017-10-31T23:46:24.790Z,3.40
2017-10-31T23:48:53.218Z,3.40
2017-10-31T23:51:21.623Z,3.40
2017-10-31T23:53:50.028Z,3.30
2017-10-31T23:56:18.438Z,3.30
2017-10-31T23:58:46.841Z,3.30
